createdAt,value
2018-09-08T00:57:53.295Z,6.50
2018-09-08T01:00:22.269Z,5.53
2018-09-08T01:02:51.195Z,6.23
2018-09-08T01:05:20.171Z,5.90
2018-09-08T01:07:49.068Z,5.87
2018-09-08T01:10:18.047Z,6.50
2018-09-08T01:12:47.022Z,6.27
2018-09-08T01:15:16.039Z,6.47
2018-09-08T01:17:45.063Z,6.73
2018-09-08T01:20:14.066Z,6.60
2018-09-08T01:22:43.023Z,6.57
2018-09-08T01:25:11.962Z,6.60
2018-09-08T01:27:41.100Z,5.93
2018-09-08T01:30:10.108Z,6.03
2018-09-08T01:32:39.095Z,6.10
2018-09-08T01:35:08.164Z,5.90
2018-09-08T01:37:37.246Z,6.30
2018-09-08T01:40:06.971Z,5.90
2018-09-08T01:42:36.007Z,6.23
2018-09-08T01:45:05.295Z,6.27
2018-09-08T01:47:34.436Z,7.00
2018-09-08T01:50:03.645Z,5.93
2018-09-08T01:52:32.610Z,6.10
2018-09-08T01:55:01.569Z,6.10
2018-09-08T01:57:30.649Z,6.23
2018-09-08T01:59:59.804Z,5.97
2018-09-08T02:02:28.734Z,5.80
2018-09-08T02:05:00.342Z,5.90
2018-09-08T02:07:32.289Z,6.40
2018-09-08T02:10:03.042Z,5.90
2018-09-08T02:12:32.689Z,6.47
2018-09-08T02:15:01.686Z,6.47
2018-09-08T02:17:31.803Z,5.97
2018-09-08T02:20:00.839Z,6.30
2018-09-08T02:22:29.867Z,6.10
2018-09-08T02:24:58.931Z,6.60
2018-09-08T02:27:27.876Z,6.63
2018-09-08T02:29:56.855Z,6.17
2018-09-08T02:32:25.859Z,5.97
2018-09-08T02:34:54.840Z,6.20
2018-09-08T02:37:24.093Z,5.97
2018-09-08T02:39:53.067Z,5.83
2018-09-08T02:42:22.115Z,6.30
2018-09-08T02:44:51.148Z,5.97
2018-09-08T02:47:20.156Z,6.67
2018-09-08T02:49:59.983Z,6.30
2018-09-08T02:52:27.800Z,6.33
2018-09-08T02:54:55.719Z,5.97
2018-09-08T02:57:23.311Z,5.80
2018-09-08T02:59:51.010Z,5.90
2018-09-08T03:02:18.544Z,6.10
2018-09-08T03:04:46.111Z,6.30
2018-09-08T03:07:15.226Z,6.50
2018-09-08T03:09:44.759Z,6.30
2018-09-08T03:12:12.355Z,5.87
2018-09-08T03:14:39.955Z,6.07
2018-09-08T03:17:07.895Z,5.73
2018-09-08T03:19:35.503Z,6.70
2018-09-08T03:22:03.042Z,6.07
2018-09-08T03:24:30.622Z,5.97
2018-09-08T03:26:58.151Z,5.73
2018-09-08T03:29:25.726Z,6.27
2018-09-08T03:31:53.276Z,6.03
2018-09-08T03:34:20.843Z,5.80
2018-09-08T03:36:48.427Z,6.10
2018-09-08T03:39:15.967Z,6.20
2018-09-08T03:41:43.559Z,5.70
2018-09-08T03:44:11.702Z,5.67
2018-09-08T03:46:39.530Z,6.33
2018-09-08T03:49:07.093Z,5.73
2018-09-08T03:51:34.751Z,6.20
2018-09-08T03:54:02.407Z,6.03
2018-09-08T03:56:29.980Z,6.13
2018-09-08T03:58:57.552Z,6.37
2018-09-08T04:01:25.203Z,5.83
2018-09-08T04:03:54.203Z,5.70
2018-09-08T04:06:23.225Z,6.23
2018-09-08T04:08:52.216Z,5.90
2018-09-08T04:11:21.223Z,6.30
2018-09-08T04:13:50.194Z,5.70
2018-09-08T04:16:19.159Z,5.93
2018-09-08T04:18:48.279Z,5.70
2018-09-08T04:21:17.393Z,5.63
2018-09-08T04:23:47.043Z,5.70
2018-09-08T04:26:16.066Z,6.10
2018-09-08T04:28:45.087Z,5.57
2018-09-08T04:31:14.099Z,5.87
2018-09-08T04:33:43.043Z,5.60
2018-09-08T04:36:12.044Z,5.73
2018-09-08T04:38:41.015Z,6.40
2018-09-08T04:41:10.099Z,6.20
2018-09-08T04:43:39.109Z,6.10
2018-09-08T04:46:08.055Z,5.90
2018-09-08T04:48:37.063Z,6.20
2018-09-08T04:51:06.192Z,5.90
2018-09-08T04:53:35.179Z,5.83
2018-09-08T04:56:04.140Z,6.30
2018-09-08T04:58:33.159Z,5.90
2018-09-08T05:01:02.191Z,5.93
2018-09-08T05:03:31.234Z,6.70
2018-09-08T05:06:00.184Z,6.33
2018-09-08T05:08:29.220Z,6.20
2018-09-08T05:10:58.152Z,6.20
2018-09-08T05:13:27.161Z,6.73
2018-09-08T05:15:56.132Z,6.43
2018-09-08T05:18:25.129Z,5.87
2018-09-08T05:20:54.060Z,6.03
2018-09-08T05:23:24.004Z,7.17
2018-09-08T05:25:53.059Z,6.73
2018-09-08T05:28:22.110Z,7.13
2018-09-08T05:30:51.172Z,11.17
2018-09-08T05:33:20.275Z,8.97
2018-09-08T05:35:50.197Z,9.77
2018-09-08T05:38:19.185Z,11.97
2018-09-08T05:40:48.163Z,13.17
2018-09-08T05:43:17.138Z,9.73
2018-09-08T05:45:46.140Z,9.67
2018-09-08T05:48:15.392Z,8.67
2018-09-08T05:50:44.319Z,7.40
2018-09-08T05:53:13.372Z,7.83
2018-09-08T05:55:42.341Z,6.53
2018-09-08T05:58:11.356Z,6.50
2018-09-08T06:00:40.404Z,8.33
2018-09-08T06:03:09.411Z,9.93
2018-09-08T06:05:38.440Z,10.53
2018-09-08T06:08:07.385Z,11.13
2018-09-08T06:10:36.383Z,8.03
2018-09-08T06:13:05.452Z,7.40
2018-09-08T06:15:34.473Z,7.47
2018-09-08T06:18:03.521Z,6.70
2018-09-08T06:20:32.512Z,8.77
2018-09-08T06:23:01.670Z,8.10
2018-09-08T06:25:32.456Z,6.80
2018-09-08T06:30:36.344Z,7.23
2018-09-08T06:33:05.399Z,6.63
2018-09-08T06:35:34.448Z,6.77
2018-09-08T06:38:03.415Z,6.63
2018-09-08T06:40:32.464Z,6.67
2018-09-08T06:43:01.441Z,7.03
2018-09-08T06:45:30.430Z,6.63
2018-09-08T06:48:01.352Z,6.93
2018-09-08T06:50:30.568Z,6.33
2018-09-08T06:52:59.568Z,5.70
2018-09-08T06:55:28.563Z,6.90
2018-09-08T06:57:57.857Z,6.40
2018-09-08T07:00:28.504Z,5.87
2018-09-08T07:03:00.250Z,6.23
2018-09-08T07:05:29.271Z,5.77
2018-09-08T07:08:04.678Z,5.83
2018-09-08T07:10:40.402Z,5.70
2018-09-08T07:13:12.196Z,5.87
2018-09-08T07:15:49.496Z,5.67
2018-09-08T07:18:18.580Z,6.67
2018-09-08T07:23:38.871Z,6.30
2018-09-08T07:26:11.328Z,6.13
2018-09-08T07:28:45.336Z,6.20
2018-09-08T07:31:15.308Z,6.17
2018-09-08T07:33:53.816Z,5.87
2018-09-08T07:36:29.553Z,7.00
2018-09-08T07:38:59.520Z,6.37
2018-09-08T07:41:28.784Z,6.97
2018-09-08T07:43:58.391Z,6.90
2018-09-08T07:46:28.394Z,7.20
2018-09-08T07:48:57.452Z,7.27
2018-09-08T07:51:26.552Z,6.23
2018-09-08T07:53:55.642Z,6.80
2018-09-08T07:56:24.632Z,6.27
2018-09-08T07:58:56.640Z,6.23
2018-09-08T08:01:27.201Z,6.90
2018-09-08T08:03:56.367Z,6.30
2018-09-08T08:06:26.413Z,6.17
2018-09-08T08:08:56.330Z,6.30
2018-09-08T08:11:25.480Z,6.10
2018-09-08T08:13:56.042Z,6.07
2018-09-08T08:16:26.959Z,6.80
2018-09-08T08:18:56.958Z,6.03
2018-09-08T08:21:26.095Z,6.33
2018-09-08T08:23:55.107Z,5.40
2018-09-08T08:26:24.192Z,6.23
2018-09-08T08:28:54.903Z,6.43
2018-09-08T08:31:24.125Z,6.07
2018-09-08T08:33:54.144Z,6.07
2018-09-08T08:36:24.080Z,5.63
2018-09-08T08:38:58.206Z,6.17
2018-09-08T08:41:27.202Z,6.10
2018-09-08T08:43:56.306Z,5.80
2018-09-08T08:46:25.436Z,6.10
2018-09-08T08:48:54.843Z,6.10
2018-09-08T08:51:35.754Z,6.00
2018-09-08T08:54:17.291Z,5.87
2018-09-08T08:56:47.357Z,5.97
2018-09-08T08:59:16.387Z,5.93
2018-09-08T09:01:45.397Z,6.00
2018-09-08T09:04:14.449Z,5.97
2018-09-08T09:07:33.554Z,6.50
2018-09-08T09:10:14.219Z,6.27
2018-09-08T09:12:48.133Z,6.73
2018-09-08T09:15:17.609Z,6.63
2018-09-08T09:17:46.493Z,6.20
2018-09-08T09:20:26.356Z,6.73
2018-09-08T09:23:06.643Z,6.27
2018-09-08T09:25:36.025Z,6.17
2018-09-08T09:28:05.497Z,6.40
2018-09-08T09:30:37.145Z,5.73
2018-09-08T09:33:28.748Z,5.90
2018-09-08T09:36:01.504Z,5.77
2018-09-08T09:38:36.756Z,6.23
2018-09-08T09:41:06.071Z,6.43
2018-09-08T09:43:35.920Z,6.00
2018-09-08T09:46:09.483Z,5.90
2018-09-08T09:48:38.580Z,6.13
2018-09-08T09:51:11.748Z,5.90
2018-09-08T09:53:41.072Z,5.90
2018-09-08T09:56:11.287Z,5.93
2018-09-08T09:58:42.084Z,5.87
2018-09-08T10:01:12.629Z,5.33
2018-09-08T10:03:43.693Z,5.93
2018-09-08T10:06:13.464Z,5.60
2018-09-08T10:08:42.874Z,5.57
2018-09-08T10:11:14.360Z,5.65
2018-09-08T10:13:45.572Z,6.00
2018-09-08T10:16:19.976Z,5.20
2018-09-08T10:18:52.950Z,5.75
2018-09-08T10:21:23.811Z,5.28
2018-09-08T10:24:05.160Z,5.72
2018-09-08T10:26:22.928Z,5.15
2018-09-08T10:28:53.768Z,5.95
2018-09-08T10:31:25.344Z,5.20
2018-09-08T10:33:56.096Z,5.87
2018-09-08T10:36:29.798Z,5.55
2018-09-08T10:39:05.687Z,5.60
2018-09-08T10:41:34.776Z,5.40
2018-09-08T10:44:03.896Z,5.40
2018-09-08T10:46:33.076Z,5.22
2018-09-08T10:49:02.286Z,5.30
2018-09-08T10:51:43.464Z,5.53
2018-09-08T10:54:12.483Z,5.42
2018-09-08T10:56:41.600Z,5.05
2018-09-08T10:59:10.617Z,5.28
2018-09-08T11:01:40.256Z,5.70
2018-09-08T11:04:09.219Z,4.95
2018-09-08T11:06:38.287Z,4.40
2018-09-08T11:09:07.528Z,4.47
2018-09-08T11:11:36.607Z,5.33
2018-09-08T11:14:05.798Z,4.80
2018-09-08T11:16:34.846Z,5.03
2018-09-08T11:19:03.933Z,4.90
2018-09-08T11:21:33.004Z,4.83
2018-09-08T11:24:02.031Z,4.85
2018-09-08T11:26:31.098Z,5.10
2018-09-08T11:29:00.144Z,4.58
2018-09-08T11:31:29.240Z,4.85
2018-09-08T11:33:58.496Z,4.60
2018-09-08T11:36:27.533Z,4.85
2018-09-08T11:38:56.604Z,4.40
2018-09-08T11:41:25.696Z,4.28
2018-09-08T11:43:54.708Z,4.90
2018-09-08T11:46:23.747Z,4.40
2018-09-08T11:48:52.781Z,4.78
2018-09-08T11:51:21.856Z,4.62
2018-09-08T11:53:50.893Z,4.67
2018-09-08T11:56:19.928Z,5.35
2018-09-08T11:58:48.932Z,4.58
2018-09-08T12:01:17.976Z,4.70
2018-09-08T12:03:46.994Z,4.60
2018-09-08T12:06:16.027Z,4.97
2018-09-08T12:08:45.062Z,4.35
2018-09-08T12:11:14.108Z,4.42
2018-09-08T12:13:43.153Z,4.53
2018-09-08T12:16:12.560Z,4.60
2018-09-08T12:18:41.645Z,4.53
2018-09-08T12:21:10.694Z,4.80
2018-09-08T12:23:39.848Z,4.65
2018-09-08T12:26:09.402Z,4.37
2018-09-08T12:28:39.081Z,4.83
2018-09-08T12:31:08.316Z,5.03
2018-09-08T12:39:21.644Z,4.67
2018-09-08T12:41:50.724Z,4.37
2018-09-08T12:44:19.945Z,4.80
2018-09-08T12:46:49.000Z,4.70
2018-09-08T12:49:18.100Z,4.97
2018-09-08T12:51:47.265Z,4.83
2018-09-08T12:54:16.349Z,4.83
2018-09-08T12:56:45.400Z,4.85
2018-09-08T12:59:14.485Z,5.15
2018-09-08T13:01:43.544Z,5.10
2018-09-08T13:04:12.645Z,4.85
2018-09-08T13:06:41.700Z,4.97
2018-09-08T13:09:10.844Z,4.37
2018-09-08T13:11:39.909Z,4.75
2018-09-08T13:14:08.970Z,4.55
2018-09-08T13:16:38.241Z,4.50
2018-09-08T13:19:07.453Z,4.75
2018-09-08T13:21:37.684Z,5.12
2018-09-08T13:24:07.144Z,4.60
2018-09-08T13:26:36.375Z,4.70
2018-09-08T13:29:05.746Z,5.20
2018-09-08T13:31:35.412Z,5.00
2018-09-08T13:34:04.998Z,4.45
2018-09-08T13:36:34.240Z,4.65
2018-09-08T13:39:03.680Z,4.45
2018-09-08T13:41:32.824Z,4.85
2018-09-08T13:44:02.696Z,4.30
2018-09-08T13:46:31.842Z,4.72
2018-09-08T13:49:02.039Z,4.87
2018-09-08T13:51:32.203Z,4.72
2018-09-08T13:54:01.452Z,5.47
2018-09-08T13:56:30.620Z,4.92
2018-09-08T13:59:00.072Z,5.35
2018-09-08T14:01:29.589Z,4.92
2018-09-08T14:03:58.745Z,5.03
2018-09-08T14:06:27.980Z,5.35
2018-09-08T14:08:57.200Z,5.40
2018-09-08T14:11:26.426Z,5.22
2018-09-08T14:13:55.654Z,4.97
2018-09-08T14:16:24.808Z,5.10
2018-09-08T14:18:53.973Z,4.80
2018-09-08T14:21:23.092Z,4.95
2018-09-08T14:23:52.207Z,4.92
2018-09-08T14:26:22.011Z,4.90
2018-09-08T14:28:51.148Z,5.05
2018-09-08T14:31:20.267Z,4.70
2018-09-08T14:33:49.335Z,5.12
2018-09-08T14:36:18.741Z,4.80
2018-09-08T14:38:48.112Z,4.67
2018-09-08T14:41:17.149Z,4.97
2018-09-08T14:43:46.349Z,4.22
2018-09-08T14:46:15.426Z,4.53
2018-09-08T14:48:44.509Z,4.37
2018-09-08T14:51:13.608Z,5.00
2018-09-08T14:53:43.064Z,4.92
2018-09-08T14:56:12.199Z,5.05
2018-09-08T14:58:41.241Z,4.97
2018-09-08T15:01:10.466Z,4.80
2018-09-08T15:03:39.584Z,4.92
2018-09-08T15:06:08.632Z,4.25
2018-09-08T15:08:37.731Z,5.00
2018-09-08T15:11:06.864Z,5.08
2018-09-08T15:13:36.388Z,4.67
2018-09-08T15:16:05.411Z,5.22
2018-09-08T15:18:34.472Z,4.75
2018-09-08T15:21:03.531Z,5.20
2018-09-08T15:23:32.736Z,4.83
2018-09-08T15:26:02.713Z,4.80
2018-09-08T15:28:32.534Z,4.97
2018-09-08T15:31:01.969Z,4.65
2018-09-08T15:33:31.032Z,4.87
2018-09-08T15:36:00.385Z,5.22
2018-09-08T15:38:29.437Z,5.20
2018-09-08T15:40:58.628Z,5.10
2018-09-08T15:43:27.624Z,5.10
2018-09-08T15:45:56.743Z,4.83
2018-09-08T15:48:25.828Z,4.62
2018-09-08T15:50:54.906Z,4.70
2018-09-08T15:53:24.080Z,4.67
2018-09-08T15:55:53.154Z,5.20
2018-09-08T15:58:22.305Z,5.17
2018-09-08T16:00:51.534Z,5.12
2018-09-08T16:03:20.632Z,5.17
2018-09-08T16:05:50.225Z,5.28
2018-09-08T16:08:19.452Z,5.22
2018-09-08T16:10:48.594Z,5.15
2018-09-08T16:13:17.592Z,5.50
2018-09-08T16:15:46.771Z,5.35
2018-09-08T16:18:16.152Z,5.55
2018-09-08T16:20:46.630Z,5.28
2018-09-08T16:23:15.717Z,5.35
2018-09-08T16:25:44.846Z,5.47
2018-09-08T16:28:13.992Z,5.30
2018-09-08T16:30:43.092Z,5.70
2018-09-08T16:33:13.252Z,4.95
2018-09-08T16:35:42.340Z,5.47
2018-09-08T16:38:12.541Z,5.22
2018-09-08T16:40:41.796Z,5.30
2018-09-08T16:43:11.116Z,5.62
2018-09-08T16:45:40.255Z,5.78
2018-09-08T16:48:09.344Z,5.95
2018-09-08T16:50:38.462Z,6.08
2018-09-08T16:53:07.672Z,5.33
2018-09-08T16:55:37.158Z,5.83
2018-09-08T16:58:06.538Z,5.67
2018-09-08T17:00:35.773Z,5.73
2018-09-08T17:03:04.931Z,6.78
2018-09-08T17:05:34.211Z,8.03
2018-09-08T17:08:03.747Z,8.53
2018-09-08T17:10:32.916Z,8.37
2018-09-08T17:13:02.197Z,7.87
2018-09-08T17:15:31.423Z,6.50
2018-09-08T17:18:00.936Z,6.03
2018-09-08T17:20:30.159Z,7.47
2018-09-08T17:22:59.362Z,6.80
2018-09-08T17:25:28.810Z,7.27
2018-09-08T17:27:58.448Z,6.00
2018-09-08T17:30:27.839Z,5.90
2018-09-08T17:32:57.063Z,6.30
2018-09-08T17:35:26.429Z,6.90
2018-09-08T17:37:55.550Z,6.90
2018-09-08T17:40:24.720Z,7.10
2018-09-08T17:42:53.845Z,7.20
2018-09-08T17:45:22.929Z,7.00
2018-09-08T17:47:52.088Z,7.03
2018-09-08T17:50:21.210Z,7.10
2018-09-08T17:52:50.324Z,7.37
2018-09-08T17:55:19.463Z,6.23
2018-09-08T17:57:48.548Z,6.70
2018-09-08T18:00:17.520Z,6.60
2018-09-08T18:02:47.004Z,7.20
2018-09-08T18:05:16.724Z,6.87
2018-09-08T18:07:45.827Z,6.77
2018-09-08T18:10:14.911Z,6.40
2018-09-08T18:12:44.035Z,6.53
2018-09-08T18:15:13.127Z,7.23
2018-09-08T18:17:42.329Z,7.33
2018-09-08T18:20:17.168Z,7.97
2018-09-08T18:22:46.201Z,7.43
2018-09-08T18:25:15.313Z,7.30
2018-09-08T18:27:44.421Z,7.63
2018-09-08T18:30:13.620Z,7.53
2018-09-08T18:32:45.836Z,7.50
2018-09-08T18:35:16.361Z,7.20
2018-09-08T18:37:45.571Z,7.27
2018-09-08T18:40:14.596Z,6.93
2018-09-08T18:42:44.248Z,6.87
2018-09-08T18:45:13.393Z,10.83
2018-09-08T18:47:42.564Z,9.77
2018-09-08T18:50:11.664Z,8.23
2018-09-08T18:52:40.710Z,7.90
2018-09-08T18:55:09.848Z,9.93
2018-09-08T18:57:38.862Z,12.63
2018-09-08T19:00:07.960Z,10.90
2018-09-08T19:02:37.464Z,8.07
2018-09-08T19:05:06.707Z,7.43
2018-09-08T19:07:35.815Z,7.70
2018-09-08T19:10:05.556Z,6.60
2018-09-08T19:12:35.919Z,7.40
2018-09-08T19:15:10.163Z,7.17
2018-09-08T19:17:39.251Z,6.53
2018-09-08T19:20:14.396Z,6.77
2018-09-08T19:22:43.945Z,7.37
2018-09-08T19:25:14.111Z,7.50
2018-09-08T19:27:43.231Z,7.67
2018-09-08T19:30:12.504Z,7.87
2018-09-08T19:32:41.573Z,7.33
2018-09-08T19:35:15.929Z,6.77
2018-09-08T19:37:45.128Z,6.90
2018-09-08T19:40:19.269Z,7.10
2018-09-08T19:42:48.461Z,7.30
2018-09-08T19:45:17.529Z,7.07
2018-09-08T19:47:51.741Z,7.23
2018-09-08T19:50:20.932Z,7.50
2018-09-08T19:52:55.196Z,7.63
2018-09-08T19:55:24.258Z,8.23
2018-09-08T19:57:58.503Z,8.43
2018-09-08T20:00:27.520Z,8.33
2018-09-08T20:02:56.563Z,8.30
2018-09-08T20:05:25.650Z,8.30
2018-09-08T20:07:55.470Z,11.43
2018-09-08T20:10:24.516Z,8.97
2018-09-08T20:12:53.844Z,9.13
2018-09-08T20:15:23.937Z,12.53
2018-09-08T20:17:53.099Z,9.30
2018-09-08T20:20:22.129Z,8.70
2018-09-08T20:22:51.320Z,8.90
2018-09-08T20:25:20.444Z,8.53
2018-09-08T20:27:50.481Z,8.50
2018-09-08T20:30:19.631Z,8.53
2018-09-08T20:32:48.716Z,9.23
2018-09-08T20:35:17.777Z,9.50
2018-09-08T20:37:46.813Z,9.03
2018-09-08T20:40:16.184Z,8.80
2018-09-08T20:42:45.284Z,8.50
2018-09-08T20:45:14.304Z,8.50
2018-09-08T20:47:43.913Z,8.90
2018-09-08T20:50:15.358Z,8.70
2018-09-08T20:52:45.180Z,9.10
2018-09-08T20:55:14.244Z,8.93
2018-09-08T20:57:43.305Z,9.07
2018-09-08T21:00:12.304Z,8.20
2018-09-08T21:02:41.332Z,8.23
2018-09-08T21:05:10.353Z,8.20
2018-09-08T21:07:39.411Z,7.77
2018-09-08T21:10:08.549Z,8.63
2018-09-08T21:12:37.567Z,15.07
2018-09-08T21:15:07.251Z,8.60
2018-09-08T21:17:36.264Z,8.40
2018-09-08T21:20:05.301Z,8.80
2018-09-08T21:22:34.427Z,8.43
2018-09-08T21:25:03.455Z,8.37
2018-09-08T21:27:32.413Z,8.47
2018-09-08T21:30:01.426Z,8.20
2018-09-08T21:32:30.440Z,8.00
2018-09-08T21:34:59.456Z,7.90
2018-09-08T21:37:28.896Z,8.57
2018-09-08T21:39:58.512Z,7.90
2018-09-08T21:42:27.998Z,8.33
2018-09-08T21:44:57.552Z,8.27
2018-09-08T21:47:27.592Z,7.87
2018-09-08T21:49:57.769Z,9.00
2018-09-08T21:52:26.784Z,7.63
2018-09-08T21:54:57.680Z,8.17
2018-09-08T21:57:27.130Z,7.87
2018-09-08T21:59:56.243Z,8.30
2018-09-08T22:02:25.264Z,8.17
2018-09-08T22:04:54.528Z,8.33
2018-09-08T22:07:24.092Z,7.77
2018-09-08T22:09:53.142Z,7.60
2018-09-08T22:12:22.121Z,9.07
2018-09-08T22:14:51.147Z,8.00
2018-09-08T22:17:20.120Z,8.30
2018-09-08T22:19:49.180Z,8.00
2018-09-08T22:22:18.317Z,7.63
2018-09-08T22:24:47.357Z,7.80
2018-09-08T22:27:16.328Z,7.97
2018-09-08T22:29:45.359Z,7.70
2018-09-08T22:32:14.328Z,7.37
2018-09-08T22:34:43.360Z,7.80
2018-09-08T22:37:12.587Z,7.23
2018-09-08T22:39:41.879Z,7.80
2018-09-08T22:42:11.532Z,8.10
2018-09-08T22:44:40.508Z,7.63
2018-09-08T22:47:09.540Z,7.90
2018-09-08T22:49:38.532Z,7.77
2018-09-08T22:52:07.564Z,7.57
2018-09-08T22:54:36.566Z,8.00
2018-09-08T22:57:05.648Z,8.00
2018-09-08T22:59:34.697Z,7.20
2018-09-08T23:02:04.112Z,7.60
2018-09-08T23:04:33.113Z,7.80
2018-09-08T23:07:02.781Z,7.30
2018-09-08T23:09:31.808Z,7.67
2018-09-08T23:12:00.833Z,8.30
2018-09-08T23:14:29.848Z,7.77
2018-09-08T23:16:58.887Z,7.80
2018-09-08T23:19:27.979Z,7.80
2018-09-08T23:21:56.984Z,7.83
2018-09-08T23:24:26.096Z,7.77
2018-09-08T23:26:55.364Z,7.77
2018-09-08T23:29:24.404Z,7.53
2018-09-08T23:31:53.428Z,8.30
2018-09-08T23:34:22.464Z,8.43
2018-09-08T23:36:51.452Z,8.03
2018-09-08T23:39:21.125Z,7.50
2018-09-08T23:41:50.116Z,7.70
2018-09-08T23:44:19.162Z,7.23
2018-09-08T23:46:48.221Z,7.87
2018-09-08T23:49:17.196Z,7.87
2018-09-08T23:51:46.452Z,7.60
2018-09-08T23:54:15.617Z,7.70
2018-09-08T23:56:44.582Z,6.97
2018-09-08T23:59:13.634Z,7.53
